Time;durP1;ratioP1;P1;durP2;ratioP2;P2;SDS_P1;SDS_P2;PMS_P1;PMS_P2;Temp;Humidity;BMP_temperature;BMP_pressure;BME280_temperature;BME280_humidity;BME280_pressure;Samples;Min_cycle;Max_cycle;Signal;HPM_P1;HPM_P2
2023/07/11 00:00:14;;;;;;;5.57;1.55;;;19.50;80.60;;;;;;5057121;28;20467;-74
2023/07/11 00:02:42;;;;;;;5.82;1.35;;;19.50;81.10;;;;;;5074147;28;20177;-75
2023/07/11 00:05:08;;;;;;;4.50;1.10;;;19.50;81.10;;;;;;5073613;28;20037;-75
2023/07/11 00:07:33;;;;;;;4.43;1.20;;;19.60;81.30;;;;;;5073721;28;20431;-74
2023/07/11 00:09:59;;;;;;;6.15;1.60;;;19.60;82.40;;;;;;5057355;28;20043;-75
2023/07/11 00:12:28;;;;;;;6.88;1.30;;;19.60;81.30;;;;;;5073621;28;20041;-75
2023/07/11 00:14:56;;;;;;;5.50;1.25;;;19.60;81.40;;;;;;5073601;28;20465;-75
2023/07/11 00:17:21;;;;;;;4.30;1.50;;;19.60;81.20;;;;;;5073479;28;20127;-74
2023/07/11 00:19:53;;;;;;;5.72;1.15;;;19.60;81.00;;;;;;5073508;28;20119;-75
2023/07/11 00:22:19;;;;;;;5.28;1.30;;;19.60;81.50;;;;;;5073420;28;20458;-74
2023/07/11 00:24:46;;;;;;;4.65;1.25;;;19.60;81.80;;;;;;5073402;28;20127;-74
2023/07/11 00:27:15;;;;;;;4.60;1.27;;;19.60;81.80;;;;;;5073281;28;20040;-74
2023/07/11 00:29:41;;;;;;;6.15;1.73;;;19.60;81.60;;;;;;5073299;28;20485;-74
2023/07/11 00:32:07;;;;;;;3.83;1.42;;;19.60;81.50;;;;;;5073204;28;20048;-74
2023/07/11 00:34:33;;;;;;;10.25;1.25;;;19.60;81.60;;;;;;5073178;28;20489;-74
2023/07/11 00:36:59;;;;;;;3.65;1.42;;;19.60;81.70;;;;;;5073165;28;20102;-74
2023/07/11 00:39:27;;;;;;;4.07;1.20;;;19.60;82.10;;;;;;5072992;28;20072;-74
2023/07/11 00:41:53;;;;;;;5.13;1.40;;;19.70;82.70;;;;;;5073042;28;20094;-75
2023/07/11 00:44:19;;;;;;;7.30;1.25;;;19.70;82.90;;;;;;5056426;28;20044;-75
2023/07/11 00:46:44;;;;;;;4.38;1.40;;;19.70;83.70;;;;;;5073212;28;20123;-74
2023/07/11 00:49:16;;;;;;;3.97;1.33;;;19.70;84.00;;;;;;5056201;28;20548;-74
2023/07/11 00:51:54;;;;;;;5.22;1.10;;;19.60;84.00;;;;;;5056262;28;20033;-74
2023/07/11 00:54:31;;;;;;;4.90;1.35;;;19.60;85.00;;;;;;5072870;28;20045;-74
2023/07/11 00:57:00;;;;;;;3.47;1.15;;;19.60;85.60;;;;;;5073052;28;20050;-74
2023/07/11 00:59:26;;;;;;;4.72;1.33;;;19.60;84.70;;;;;;5056134;28;20040;-74
2023/07/11 01:02:26;;;;;;;5.10;1.45;;;19.60;85.00;;;;;;5072944;28;20032;-74
2023/07/11 01:04:52;;;;;;;3.97;1.15;;;19.60;85.50;;;;;;5018742;28;20045;-75
2023/07/11 01:07:23;;;;;;;5.68;1.35;;;19.50;85.80;;;;;;5034613;28;20555;-74
2023/07/11 01:09:48;;;;;;;4.13;1.25;;;19.50;85.70;;;;;;5035029;28;20056;-74
2023/07/11 01:12:15;;;;;;;7.32;1.50;;;19.50;86.00;;;;;;5018470;28;20041;-74
2023/07/11 01:14:44;;;;;;;6.22;1.20;;;19.40;86.40;;;;;;5035265;28;20533;-74
2023/07/11 01:17:29;;;;;;;4.32;1.48;;;19.40;87.00;;;;;;5034786;28;20036;-74
2023/07/11 01:19:56;;;;;;;4.10;1.17;;;19.40;86.90;;;;;;5035737;28;20037;-74
2023/07/11 01:22:24;;;;;;;4.22;1.25;;;19.30;87.00;;;;;;5018257;28;20084;-74
2023/07/11 01:24:53;;;;;;;5.00;1.50;;;19.30;87.00;;;;;;5035032;28;20471;-75
2023/07/11 01:27:19;;;;;;;5.82;1.38;;;19.30;87.00;;;;;;5018163;28;20090;-74
2023/07/11 01:29:48;;;;;;;5.35;1.52;;;19.30;87.50;;;;;;5034742;28;20041;-74
2023/07/11 01:32:14;;;;;;;5.88;1.30;;;19.30;87.40;;;;;;5034637;28;20037;-74
2023/07/11 01:34:40;;;;;;;5.47;1.40;;;19.20;88.40;;;;;;5034725;28;20040;-74
2023/07/11 01:37:06;;;;;;;4.60;1.40;;;19.20;88.90;;;;;;5018069;28;20098;-74
2023/07/11 01:39:32;;;;;;;6.50;1.50;;;19.20;89.40;;;;;;5034559;28;20036;-74
2023/07/11 01:41:58;;;;;;;6.15;1.48;;;19.20;89.70;;;;;;5052429;28;20457;-74
2023/07/11 01:44:24;;;;;;;4.63;1.42;;;19.10;89.50;;;;;;5071968;28;20529;-74
2023/07/11 01:46:50;;;;;;;6.30;1.58;;;19.10;89.50;;;;;;5072233;28;20070;-74
2023/07/11 01:49:15;;;;;;;6.18;1.40;;;19.00;89.30;;;;;;5071869;28;20444;-74
2023/07/11 01:51:45;;;;;;;4.90;1.60;;;19.00;89.80;;;;;;5055167;28;20048;-74
2023/07/11 01:54:10;;;;;;;5.18;1.70;;;19.00;90.10;;;;;;5071930;28;20115;-74
2023/07/11 01:56:36;;;;;;;6.00;1.60;;;19.00;90.20;;;;;;5071860;28;20142;-74
2023/07/11 01:59:02;;;;;;;4.82;1.70;;;19.00;90.40;;;;;;5072041;28;20532;-74
2023/07/11 02:01:28;;;;;;;7.60;1.70;;;19.00;90.70;;;;;;5072139;28;20048;-74
2023/07/11 02:03:53;;;;;;;5.20;1.50;;;18.90;90.90;;;;;;5072087;28;20447;-75
2023/07/11 02:06:19;;;;;;;5.63;1.70;;;18.80;91.20;;;;;;5071931;28;20135;-75
2023/07/11 02:08:46;;;;;;;4.63;1.30;;;18.80;91.40;;;;;;5071708;28;20133;-74
2023/07/11 02:11:12;;;;;;;4.53;1.10;;;18.70;91.70;;;;;;5071643;28;20037;-74
2023/07/11 02:13:40;;;;;;;2.92;1.10;;;18.60;92.30;;;;;;5071725;28;20037;-75
2023/07/11 02:16:06;;;;;;;7.40;1.45;;;18.60;92.80;;;;;;5071679;28;20412;-75
2023/07/11 02:18:32;;;;;;;3.58;1.30;;;18.50;93.10;;;;;;5056799;28;20548;-74
2023/07/11 02:20:57;;;;;;;5.43;1.70;;;18.50;93.50;;;;;;5075998;28;20086;-74
2023/07/11 02:23:24;;;;;;;6.93;1.15;;;18.40;93.80;;;;;;5075745;28;20132;-74
2023/07/11 02:25:53;;;;;;;4.25;1.30;;;18.30;94.00;;;;;;5058933;28;20076;-74
2023/07/11 02:28:20;;;;;;;4.13;1.40;;;18.30;94.30;;;;;;5058843;28;20123;-74
2023/07/11 02:30:46;;;;;;;4.18;1.23;;;18.20;94.60;;;;;;5075500;28;20036;-74
2023/07/11 02:33:11;;;;;;;5.38;1.20;;;18.20;94.90;;;;;;5075542;28;20119;-74
2023/07/11 02:35:37;;;;;;;3.97;1.30;;;18.10;95.20;;;;;;5075758;28;20090;-75
2023/07/11 02:38:02;;;;;;;6.78;1.20;;;18.10;95.50;;;;;;5075589;28;20543;-74
2023/07/11 02:40:28;;;;;;;4.32;1.10;;;18.00;95.60;;;;;;5075391;28;20044;-75
2023/07/11 02:42:54;;;;;;;6.28;1.38;;;18.00;95.90;;;;;;5075658;28;20036;-75
2023/07/11 02:45:20;;;;;;;6.03;1.70;;;17.90;96.10;;;;;;5058607;28;20548;-74
2023/07/11 02:47:45;;;;;;;3.10;1.10;;;17.90;96.30;;;;;;5075473;28;20028;-74
2023/07/11 02:50:11;;;;;;;5.40;1.40;;;17.90;96.40;;;;;;5075247;28;20493;-75
2023/07/11 02:52:38;;;;;;;4.88;1.40;;;17.90;96.60;;;;;;5058449;28;20053;-74
2023/07/11 02:55:04;;;;;;;6.10;1.65;;;17.80;96.80;;;;;;5058426;28;20037;-75
2023/07/11 02:57:30;;;;;;;5.18;1.20;;;17.70;96.90;;;;;;5075054;28;20040;-74
2023/07/11 02:59:56;;;;;;;6.55;1.38;;;17.70;97.20;;;;;;5074968;28;20039;-73
2023/07/11 03:02:21;;;;;;;4.40;1.35;;;17.70;97.30;;;;;;5075228;28;20049;-74
2023/07/11 03:04:47;;;;;;;5.07;1.60;;;17.60;97.50;;;;;;5075247;28;20056;-74
2023/07/11 03:07:13;;;;;;;3.80;1.40;;;17.60;97.70;;;;;;5074653;28;20481;-73
2023/07/11 03:09:38;;;;;;;5.32;2.13;;;17.60;97.80;;;;;;5058206;28;20048;-74
2023/07/11 03:12:05;;;;;;;7.07;1.90;;;17.60;97.70;;;;;;5074655;28;20127;-74
2023/07/11 03:14:31;;;;;;;4.28;1.75;;;17.60;97.80;;;;;;5074665;28;20058;-74
2023/07/11 03:16:56;;;;;;;6.55;1.45;;;17.60;98.00;;;;;;5058316;28;20044;-73
2023/07/11 03:19:22;;;;;;;7.10;1.80;;;17.60;98.20;;;;;;5074843;28;20512;-74
2023/07/11 03:21:49;;;;;;;4.55;1.60;;;17.60;98.40;;;;;;5074862;28;20569;-74
2023/07/11 03:24:15;;;;;;;7.25;1.58;;;17.60;98.50;;;;;;5074846;28;20413;-74
2023/07/11 03:26:41;;;;;;;4.82;1.95;;;17.50;98.60;;;;;;5074793;28;20051;-74
2023/07/11 03:29:06;;;;;;;6.25;1.40;;;17.50;98.70;;;;;;5073864;28;20119;-73
2023/07/11 03:31:32;;;;;;;6.68;1.92;;;17.50;98.80;;;;;;5074667;28;20040;-75
2023/07/11 03:33:58;;;;;;;6.32;1.90;;;17.50;98.90;;;;;;5074415;28;20033;-75
2023/07/11 03:36:23;;;;;;;5.80;2.25;;;17.50;99.20;;;;;;5074379;28;20033;-75
2023/07/11 03:38:49;;;;;;;7.07;2.15;;;17.50;99.30;;;;;;5074255;28;20040;-74
2023/07/11 03:41:14;;;;;;;6.20;1.77;;;17.50;99.50;;;;;;5074487;28;20127;-74
2023/07/11 03:43:40;;;;;;;5.28;1.40;;;17.40;99.90;;;;;;5074189;28;20394;-74
2023/07/11 03:46:06;;;;;;;5.68;2.38;;;17.40;99.60;;;;;;5074426;28;20029;-74
2023/07/11 03:48:31;;;;;;;8.02;2.72;;;17.40;99.70;;;;;;5074099;28;20481;-73
2023/07/11 03:50:57;;;;;;;8.85;2.20;;;17.40;99.80;;;;;;5074022;28;20120;-74
2023/07/11 03:53:23;;;;;;;8.13;2.03;;;17.30;99.90;;;;;;5074664;28;20068;-74
2023/07/11 03:55:49;;;;;;;6.30;2.28;;;17.30;99.90;;;;;;5074021;28;20044;-74
2023/07/11 03:58:15;;;;;;;6.55;2.58;;;17.30;99.90;;;;;;5073887;28;20055;-73
2023/07/11 04:00:40;;;;;;;5.53;2.40;;;17.30;99.90;;;;;;5074154;28;20036;-74
2023/07/11 04:03:06;;;;;;;6.95;2.50;;;17.30;99.90;;;;;;5073927;28;20038;-74
2023/07/11 04:05:31;;;;;;;5.70;2.83;;;17.30;99.90;;;;;;5057317;28;20044;-74
2023/07/11 04:07:57;;;;;;;7.50;2.95;;;17.30;99.90;;;;;;5073726;28;20043;-73
2023/07/11 04:10:23;;;;;;;7.70;3.20;;;17.40;99.90;;;;;;5073686;28;20102;-74
2023/07/11 04:12:50;;;;;;;6.35;3.08;;;17.30;99.90;;;;;;5056973;28;20043;-74
2023/07/11 04:15:16;;;;;;;6.43;2.92;;;17.40;99.90;;;;;;5073663;28;20127;-74
2023/07/11 04:17:42;;;;;;;8.57;2.80;;;17.40;99.90;;;;;;5073514;28;20050;-73
2023/07/11 04:20:08;;;;;;;7.85;2.83;;;17.30;99.90;;;;;;5073536;28;20493;-74
2023/07/11 04:22:34;;;;;;;6.65;2.83;;;17.40;99.90;;;;;;5056781;28;20048;-74
2023/07/11 04:25:00;;;;;;;8.32;3.05;;;17.40;99.90;;;;;;5056798;28;20044;-75
2023/07/11 04:27:25;;;;;;;8.55;3.10;;;17.40;99.90;;;;;;5056693;28;20037;-74
2023/07/11 04:29:51;;;;;;;8.70;3.22;;;17.40;99.90;;;;;;5056867;28;20133;-73
2023/07/11 04:32:17;;;;;;;17.60;3.78;;;17.40;99.90;;;;;;5073236;28;20124;-74
2023/07/11 04:34:43;;;;;;;8.23;2.90;;;17.50;99.90;;;;;;5073231;28;20037;-74
2023/07/11 04:37:09;;;;;;;9.00;3.60;;;17.50;99.90;;;;;;5073112;28;20473;-73
2023/07/11 04:39:35;;;;;;;6.88;3.00;;;17.60;99.90;;;;;;5073423;28;20076;-73
2023/07/11 04:42:00;;;;;;;11.73;3.33;;;17.60;99.90;;;;;;5072166;28;20488;-74
2023/07/11 04:44:26;;;;;;;7.50;3.13;;;17.70;99.90;;;;;;5056415;28;20043;-74
2023/07/11 04:46:52;;;;;;;10.45;3.80;;;17.70;99.90;;;;;;5072914;28;20554;-74
2023/07/11 04:49:17;;;;;;;9.48;3.65;;;17.80;99.90;;;;;;5072855;28;20048;-74
2023/07/11 04:51:43;;;;;;;10.43;3.17;;;17.90;99.90;;;;;;5072887;28;20130;-74
2023/07/11 04:54:09;;;;;;;13.32;3.75;;;18.10;99.90;;;;;;5056231;28;20120;-74
2023/07/11 04:56:38;;;;;;;8.23;3.45;;;18.10;99.90;;;;;;5072760;28;20078;-74
2023/07/11 04:59:04;;;;;;;6.82;3.50;;;18.20;99.90;;;;;;5072801;28;20076;-73
2023/07/11 05:01:30;;;;;;;9.00;3.75;;;18.30;99.90;;;;;;5072698;28;20083;-74
2023/07/11 05:03:56;;;;;;;9.90;3.47;;;18.40;99.90;;;;;;5056224;28;20131;-74
2023/07/11 05:06:22;;;;;;;10.88;3.85;;;18.50;99.90;;;;;;5072415;28;20524;-74
2023/07/11 05:08:48;;;;;;;8.90;3.72;;;18.50;99.90;;;;;;5072680;28;20154;-73
2023/07/11 05:11:19;;;;;;;11.32;4.32;;;18.60;99.90;;;;;;5072481;28;20513;-74
2023/07/11 05:13:47;;;;;;;9.20;4.05;;;18.60;99.90;;;;;;5072725;28;20048;-74
2023/07/11 05:16:18;;;;;;;12.70;4.32;;;18.70;99.90;;;;;;5072374;28;20033;-74
2023/07/11 05:18:45;;;;;;;8.88;4.20;;;18.70;99.90;;;;;;5072571;28;20490;-73
2023/07/11 05:21:12;;;;;;;8.23;4.05;;;18.80;99.90;;;;;;5072260;28;20040;-74
2023/07/11 05:23:38;;;;;;;9.45;3.97;;;18.90;99.90;;;;;;5072554;28;20080;-74
2023/07/11 05:26:05;;;;;;;10.23;4.63;;;18.90;99.90;;;;;;5072231;28;20509;-74
2023/07/11 05:28:31;;;;;;;9.50;4.18;;;19.00;99.90;;;;;;5055528;28;20489;-75
2023/07/11 05:30:59;;;;;;;9.35;4.30;;;19.00;99.90;;;;;;5072167;28;20032;-74
2023/07/11 05:33:25;;;;;;;7.72;3.85;;;19.00;99.90;;;;;;5072151;28;20043;-74
2023/07/11 05:38:52;;;;;;;10.00;4.55;;;19.20;99.90;;;;;;5034450;28;20462;-73
2023/07/11 05:41:18;;;;;;;8.32;4.10;;;19.20;99.90;;;;;;5034694;28;20159;-74
2023/07/11 05:43:44;;;;;;;15.73;4.40;;;19.30;99.90;;;;;;5018364;28;20044;-74
2023/07/11 05:46:10;;;;;;;10.80;4.65;;;19.40;99.90;;;;;;5018082;28;20463;-74
2023/07/11 05:48:36;;;;;;;9.07;4.10;;;19.40;99.90;;;;;;5034477;28;20041;-74
2023/07/11 05:51:08;;;;;;;12.73;4.63;;;19.50;99.90;;;;;;5034339;28;20081;-73
2023/07/11 05:53:34;;;;;;;10.90;4.07;;;19.50;99.90;;;;;;5034458;28;20404;-74
2023/07/11 05:56:00;;;;;;;5.88;3.80;;;19.50;99.90;;;;;;5034413;28;20090;-74
2023/07/11 05:58:28;;;;;;;8.68;4.15;;;19.60;99.80;;;;;;5034257;28;20041;-73
2023/07/11 06:00:54;;;;;;;11.25;3.92;;;19.70;99.60;;;;;;5034606;28;20045;-74
2023/07/11 06:03:25;;;;;;;6.75;3.90;;;19.70;99.50;;;;;;5034508;28;20048;-74
2023/07/11 06:05:51;;;;;;;9.20;3.88;;;19.80;99.30;;;;;;5034314;28;20521;-74
2023/07/11 06:08:17;;;;;;;7.30;3.80;;;19.90;99.10;;;;;;5034389;28;20055;-73
2023/07/11 06:10:43;;;;;;;8.43;3.70;;;20.00;99.00;;;;;;5034288;28;20041;-74
2023/07/11 06:13:14;;;;;;;11.75;4.55;;;20.10;98.90;;;;;;5057548;28;20040;-74
2023/07/11 06:15:40;;;;;;;8.57;4.10;;;20.20;98.80;;;;;;5071807;28;20036;-74
2023/07/11 06:18:06;;;;;;;7.85;4.30;;;20.30;98.60;;;;;;5054879;28;20378;-73
2023/07/11 06:20:31;;;;;;;12.18;4.35;;;20.30;98.50;;;;;;5054913;28;20044;-74
2023/07/11 06:22:57;;;;;;;12.60;4.40;;;20.40;98.50;;;;;;5054981;28;20209;-74
2023/07/11 06:25:22;;;;;;;8.18;3.83;;;20.60;98.30;;;;;;5071679;28;20040;-74
2023/07/11 06:27:48;;;;;;;9.02;4.20;;;20.60;98.10;;;;;;5071754;28;20044;-75
2023/07/11 06:30:14;;;;;;;7.93;3.85;;;20.80;97.90;;;;;;5071851;28;20447;-75
2023/07/11 06:32:40;;;;;;;10.05;3.85;;;20.80;97.90;;;;;;5071479;28;20127;-75
2023/07/11 06:35:06;;;;;;;9.88;4.30;;;20.90;97.80;;;;;;5071799;28;20056;-75
2023/07/11 06:37:32;;;;;;;10.18;3.83;;;21.00;97.60;;;;;;5071739;28;20040;-74
2023/07/11 06:39:57;;;;;;;9.40;3.83;;;21.10;97.40;;;;;;5071689;28;20048;-74
2023/07/11 06:42:23;;;;;;;10.07;4.22;;;21.30;97.20;;;;;;5071408;28;20032;-75
2023/07/11 06:44:49;;;;;;;13.18;4.05;;;21.40;97.10;;;;;;5071622;28;20114;-75
2023/07/11 06:47:15;;;;;;;9.90;3.92;;;21.50;97.00;;;;;;5071347;28;20111;-74
2023/07/11 06:49:40;;;;;;;6.60;3.65;;;21.50;96.80;;;;;;5071410;28;20063;-75
2023/07/11 06:52:06;;;;;;;11.10;3.92;;;21.60;96.60;;;;;;5054612;28;20052;-74
2023/07/11 06:54:32;;;;;;;10.15;3.30;;;21.70;96.40;;;;;;5054646;28;20082;-75
2023/07/11 06:56:58;;;;;;;10.20;4.00;;;21.80;96.20;;;;;;5071554;28;20043;-75
2023/07/11 06:59:24;;;;;;;8.68;3.75;;;21.90;95.80;;;;;;5071269;28;20119;-75
2023/07/11 07:01:50;;;;;;;9.00;3.83;;;21.90;95.40;;;;;;5071247;28;20036;-74
2023/07/11 07:04:15;;;;;;;7.72;3.63;;;22.00;95.40;;;;;;5071922;28;20048;-75
2023/07/11 07:06:42;;;;;;;8.60;3.45;;;22.00;95.20;;;;;;5074826;28;20378;-75
2023/07/11 07:09:08;;;;;;;10.88;3.30;;;22.10;95.10;;;;;;5074810;28;20040;-74
2023/07/11 07:11:35;;;;;;;8.48;4.05;;;22.10;94.70;;;;;;5074750;28;20127;-75
2023/07/11 07:14:10;;;;;;;7.43;3.60;;;22.20;94.50;;;;;;5074767;28;20040;-75
2023/07/11 07:16:37;;;;;;;5.57;3.28;;;22.30;94.30;;;;;;5074831;28;20028;-75
2023/07/11 07:19:07;;;;;;;8.18;3.58;;;22.30;94.30;;;;;;5074826;28;20102;-74
2023/07/11 07:21:33;;;;;;;9.27;3.72;;;22.50;94.40;;;;;;5075404;28;20036;-74
2023/07/11 07:23:59;;;;;;;13.40;3.33;;;22.60;94.30;;;;;;5074472;28;20132;-77
2023/07/11 07:26:25;;;;;;;8.00;3.17;;;22.80;94.00;;;;;;5057881;28;20448;-75
2023/07/11 07:28:51;;;;;;;10.73;4.00;;;22.90;93.50;;;;;;5057736;28;20037;-74
2023/07/11 07:31:16;;;;;;;8.68;3.58;;;23.00;93.30;;;;;;5074381;28;20044;-74
2023/07/11 07:33:42;;;;;;;7.03;3.78;;;23.10;93.10;;;;;;5074643;28;20036;-75
2023/07/11 07:36:11;;;;;;;9.23;3.47;;;23.20;92.90;;;;;;5074399;28;20539;-75
2023/07/11 07:38:38;;;;;;;8.90;3.55;;;23.30;92.80;;;;;;5074277;28;20036;-74
2023/07/11 07:41:06;;;;;;;5.78;3.28;;;23.50;92.60;;;;;;5074247;28;20044;-74
2023/07/11 07:43:33;;;;;;;8.30;3.20;;;23.60;92.40;;;;;;5074288;28;20531;-75
2023/07/11 07:46:01;;;;;;;7.22;3.40;;;23.60;92.10;;;;;;5074422;28;20047;-75
2023/07/11 07:48:27;;;;;;;10.52;3.50;;;23.70;91.70;;;;;;5074121;28;20093;-74
2023/07/11 07:51:03;;;;;;;7.78;3.30;;;23.70;91.50;;;;;;5074622;28;20040;-74
2023/07/11 07:53:30;;;;;;;9.90;3.65;;;23.80;91.30;;;;;;5057424;28;20062;-75
2023/07/11 07:56:11;;;;;;;7.03;2.95;;;24.00;91.10;;;;;;5073924;28;20086;-75
2023/07/11 07:58:37;;;;;;;8.80;3.78;;;24.10;90.50;;;;;;5057177;28;20500;-74
2023/07/11 08:01:04;;;;;;;10.63;3.35;;;24.00;90.10;;;;;;5074126;28;20052;-75
2023/07/11 08:03:30;;;;;;;9.43;3.25;;;24.00;90.10;;;;;;5074275;28;20080;-75
2023/07/11 08:05:57;;;;;;;7.05;3.33;;;24.10;90.30;;;;;;5073750;28;20076;-75
2023/07/11 08:08:22;;;;;;;8.57;3.25;;;24.20;90.20;;;;;;5073747;28;20409;-75
2023/07/11 08:10:49;;;;;;;6.43;3.05;;;24.30;90.00;;;;;;5073864;28;20511;-75
2023/07/11 08:13:14;;;;;;;6.70;3.17;;;24.50;89.80;;;;;;5073650;28;20040;-75
2023/07/11 08:15:43;;;;;;;6.60;3.13;;;24.60;89.90;;;;;;5056964;28;20113;-75
2023/07/11 08:18:09;;;;;;;5.55;2.67;;;24.70;89.20;;;;;;5057047;28;20453;-74
2023/07/11 08:20:35;;;;;;;10.23;2.85;;;24.80;88.70;;;;;;5073759;28;20036;-75
2023/07/11 08:23:01;;;;;;;7.53;3.20;;;25.00;86.50;;;;;;5073523;28;20078;-74
2023/07/11 08:25:27;;;;;;;6.07;2.70;;;25.20;86.10;;;;;;5073422;28;20039;-75
2023/07/11 08:27:53;;;;;;;6.93;2.38;;;25.30;85.20;;;;;;5073598;28;20066;-74
2023/07/11 08:30:19;;;;;;;10.98;2.88;;;25.40;83.80;;;;;;5073319;28;20132;-74
2023/07/11 08:32:45;;;;;;;10.65;2.90;;;25.50;82.00;;;;;;5073271;28;20040;-76
2023/07/11 08:35:11;;;;;;;8.88;2.40;;;25.70;81.40;;;;;;5056827;28;20101;-76
2023/07/11 08:37:36;;;;;;;11.90;2.50;;;25.80;80.50;;;;;;5073338;28;20091;-74
2023/07/11 08:40:03;;;;;;;6.82;2.28;;;26.00;80.40;;;;;;5056446;28;20500;-74
2023/07/11 08:42:40;;;;;;;7.65;2.42;;;26.00;79.00;;;;;;5073594;28;20082;-75
2023/07/11 08:45:27;;;;;;;8.57;2.67;;;26.00;77.50;;;;;;5073113;28;20527;-75
2023/07/11 08:48:00;;;;;;;9.82;2.40;;;26.20;78.00;;;;;;5073415;28;20089;-74
2023/07/11 08:50:32;;;;;;;7.50;2.67;;;26.40;76.80;;;;;;5073211;28;20044;-75
2023/07/11 08:53:11;;;;;;;9.53;2.27;;;26.50;76.10;;;;;;5072835;28;20170;-75
2023/07/11 08:55:43;;;;;;;7.15;2.10;;;26.60;74.80;;;;;;5073006;28;20481;-75
2023/07/11 08:58:16;;;;;;;6.63;1.92;;;26.70;74.30;;;;;;5072758;28;20115;-74
2023/07/11 09:00:46;;;;;;;5.78;2.13;;;26.90;73.90;;;;;;5072721;28;20068;-74
2023/07/11 09:03:30;;;;;;;9.60;1.90;;;27.00;73.50;;;;;;5072645;28;20040;-75
2023/07/11 09:06:03;;;;;;;6.88;1.75;;;27.10;70.20;;;;;;5072539;28;20041;-75
2023/07/11 09:08:30;;;;;;;11.38;2.00;;;27.10;69.40;;;;;;5055843;28;20119;-75
2023/07/11 09:11:07;;;;;;;5.63;1.98;;;27.10;69.20;;;;;;5072425;28;20041;-76
2023/07/11 09:14:02;;;;;;;10.60;2.00;;;27.20;68.60;;;;;;5072533;28;20048;-76
2023/07/11 09:16:33;;;;;;;5.63;2.50;;;27.30;68.00;;;;;;5056313;28;20135;-75
2023/07/11 09:19:14;;;;;;;8.30;1.92;;;27.30;67.20;;;;;;5072359;28;20082;-74
2023/07/11 09:21:53;;;;;;;7.75;1.70;;;27.40;67.20;;;;;;5072653;28;20044;-74
2023/07/11 09:24:42;;;;;;;8.57;1.80;;;27.50;66.80;;;;;;5072397;28;20508;-74
2023/07/11 09:27:21;;;;;;;9.10;2.10;;;27.50;65.70;;;;;;5071790;28;20044;-74
2023/07/11 09:29:48;;;;;;;6.07;2.00;;;27.80;64.90;;;;;;5072296;28;20052;-75
2023/07/11 09:32:16;;;;;;;4.75;2.15;;;28.00;64.90;;;;;;5072261;28;20044;-75
2023/07/11 09:34:44;;;;;;;4.30;1.67;;;28.10;63.60;;;;;;5072478;28;20036;-75
2023/07/11 09:37:38;;;;;;;8.73;1.88;;;28.30;63.70;;;;;;5072081;28;20473;-74
2023/07/11 09:40:26;;;;;;;5.43;1.75;;;28.40;63.50;;;;;;5072398;28;20033;-75
2023/07/11 09:42:55;;;;;;;7.18;1.70;;;28.40;61.40;;;;;;5072390;28;20044;-75
2023/07/11 09:45:28;;;;;;;8.02;1.80;;;28.30;62.90;;;;;;5072323;28;20170;-75
2023/07/11 09:48:10;;;;;;;9.43;1.80;;;28.40;63.50;;;;;;5056090;28;20041;-74
2023/07/11 09:50:57;;;;;;;10.45;2.40;;;28.30;61.20;;;;;;5072051;28;20044;-75
2023/07/11 09:53:26;;;;;;;12.93;1.90;;;28.20;61.00;;;;;;5071969;28;20048;-75
2023/07/11 09:56:00;;;;;;;16.85;2.38;;;28.20;62.00;;;;;;5072112;28;20102;-75
2023/07/11 09:58:33;;;;;;;7.20;1.88;;;28.50;62.60;;;;;;5055356;28;20059;-75
2023/07/11 10:01:01;;;;;;;6.28;1.80;;;28.80;61.90;;;;;;5072062;28;20497;-74
2023/07/11 10:03:29;;;;;;;7.32;1.83;;;29.00;61.00;;;;;;5072208;28;20505;-75
2023/07/11 10:05:56;;;;;;;8.63;2.13;;;29.10;60.80;;;;;;5072252;28;20071;-75
2023/07/11 10:08:35;;;;;;;7.85;2.38;;;29.10;61.10;;;;;;5072145;28;20633;-75
2023/07/11 10:11:04;;;;;;;7.88;1.95;;;29.20;60.40;;;;;;5055375;28;20515;-75
2023/07/11 10:13:29;;;;;;;10.98;2.55;;;29.30;59.90;;;;;;5072081;28;20083;-75
2023/07/11 10:15:59;;;;;;;9.73;2.00;;;29.50;59.40;;;;;;5055102;28;20493;-75
2023/07/11 10:18:28;;;;;;;5.43;2.13;;;29.60;59.30;;;;;;5071607;28;20037;-72
2023/07/11 10:21:00;;;;;;;9.40;2.22;;;29.80;60.00;;;;;;5055300;28;20397;-76
2023/07/11 10:23:26;;;;;;;;;;;30.00;59.70;;;;;;5055437;28;20086;-73
2023/07/11 10:26:17;;;;;;;6.20;1.95;;;30.20;59.40;;;;;;5071632;28;19916;-73
2023/07/11 10:28:45;;;;;;;7.72;1.98;;;30.40;59.70;;;;;;5055073;28;20523;-72
2023/07/11 10:31:18;;;;;;;9.00;1.73;;;30.50;58.30;;;;;;5071828;28;20041;-72
2023/07/11 10:33:57;;;;;;;11.52;2.03;;;30.50;58.40;;;;;;5054865;28;20485;-75
2023/07/11 10:36:34;;;;;;;12.77;2.08;;;30.50;58.00;;;;;;5071502;28;20040;-72
2023/07/11 10:39:12;;;;;;;6.97;1.85;;;30.70;59.00;;;;;;5071678;28;20079;-72
2023/07/11 10:41:53;;;;;;;7.60;2.45;;;30.90;58.10;;;;;;5075819;28;20108;-72
2023/07/11 10:44:38;;;;;;;6.05;1.55;;;30.90;57.40;;;;;;5059268;28;20047;-72
2023/07/11 10:47:08;;;;;;;10.10;1.90;;;30.90;56.10;;;;;;5075554;28;20078;-71
2023/07/11 10:49:54;;;;;;;10.07;1.42;;;31.00;57.10;;;;;;5075839;28;20040;-72
2023/07/11 10:52:25;;;;;;;4.07;1.67;;;31.10;55.90;;;;;;5075148;28;20086;-72
2023/07/11 10:55:08;;;;;;;5.32;1.60;;;31.20;56.50;;;;;;5076046;28;20127;-72
2023/07/11 10:57:39;;;;;;;7.80;1.80;;;31.00;56.30;;;;;;5075853;28;20123;-71
2023/07/11 11:00:14;;;;;;;8.57;1.90;;;30.90;55.50;;;;;;5075508;28;20090;-72
2023/07/11 11:02:51;;;;;;;7.03;1.70;;;31.00;55.70;;;;;;5075993;28;20041;-72
2023/07/11 11:05:45;;;;;;;5.57;1.60;;;31.10;55.30;;;;;;5075280;28;20058;-72
2023/07/11 11:08:18;;;;;;;6.35;1.70;;;31.10;55.80;;;;;;5075678;28;20501;-72
2023/07/11 11:11:09;;;;;;;7.50;1.80;;;31.30;54.20;;;;;;5075900;28;20044;-72
2023/07/11 11:13:57;;;;;;;6.10;1.67;;;31.30;55.40;;;;;;5075159;28;20086;-72
2023/07/11 11:16:34;;;;;;;4.80;1.90;;;31.40;54.80;;;;;;5068581;28;20102;-72
2023/07/11 11:19:00;;;;;;;6.38;1.65;;;31.50;54.70;;;;;;5075331;28;20485;-71
2023/07/11 11:21:40;;;;;;;8.63;1.48;;;31.60;55.60;;;;;;5075363;28;20090;-72
2023/07/11 11:24:24;;;;;;;9.32;2.03;;;31.70;54.90;;;;;;5074808;28;20047;-72
2023/07/11 11:27:12;;;;;;;7.85;1.80;;;31.90;54.80;;;;;;5074862;28;20033;-72
2023/07/11 11:30:19;;;;;;;7.05;1.70;;;32.10;55.20;;;;;;5074747;28;20178;-71
2023/07/11 11:32:48;;;;;;;4.28;1.80;;;32.20;53.50;;;;;;5075002;28;20039;-74
2023/07/11 11:35:46;;;;;;;4.60;1.80;;;32.30;52.80;;;;;;5074570;28;20047;-74
2023/07/11 11:38:39;;;;;;;9.18;1.70;;;32.40;53.20;;;;;;5055903;28;20135;-73
2023/07/11 11:41:14;;;;;;;5.78;1.90;;;32.30;52.00;;;;;;5074457;28;20036;-74
2023/07/11 11:43:44;;;;;;;6.30;2.00;;;32.40;52.00;;;;;;5074315;28;20037;-74
2023/07/11 11:46:10;;;;;;;8.07;1.80;;;32.50;51.90;;;;;;5074226;28;20044;-74
2023/07/11 11:48:38;;;;;;;7.75;2.00;;;32.50;51.80;;;;;;5074202;28;20042;-73
2023/07/11 11:51:07;;;;;;;7.72;2.00;;;32.30;50.70;;;;;;5057155;28;20082;-71
2023/07/11 11:53:34;;;;;;;11.85;1.95;;;32.30;51.50;;;;;;5074110;28;20128;-71
2023/07/11 11:56:07;;;;;;;11.02;2.03;;;32.20;51.30;;;;;;5074010;28;20047;-71
2023/07/11 11:58:38;;;;;;;10.27;2.20;;;32.30;51.90;;;;;;5074123;28;20040;-71
2023/07/11 12:01:04;;;;;;;12.15;2.30;;;32.40;51.80;;;;;;5074235;28;20489;-71
2023/07/11 12:03:44;;;;;;;8.07;1.52;;;32.40;51.60;;;;;;5073836;28;20082;-71
2023/07/11 12:06:43;;;;;;;7.80;1.92;;;32.40;51.10;;;;;;5073723;28;20040;-71
2023/07/11 12:09:17;;;;;;;9.68;2.10;;;32.30;51.10;;;;;;5036317;28;20048;-71
2023/07/11 12:12:06;;;;;;;5.90;1.80;;;32.10;50.60;;;;;;5036902;28;20060;-71
2023/07/11 12:14:56;;;;;;;11.38;2.40;;;31.90;50.50;;;;;;5036212;28;20072;-71
2023/07/11 12:17:33;;;;;;;7.28;2.00;;;31.80;52.10;;;;;;5035511;28;20410;-71
2023/07/11 12:20:05;;;;;;;4.78;1.85;;;31.90;52.00;;;;;;5037167;28;20119;-71
2023/07/11 12:22:51;;;;;;;4.93;1.80;;;31.90;51.80;;;;;;5036128;28;20125;-71
2023/07/11 12:25:29;;;;;;;10.50;2.10;;;32.00;52.30;;;;;;5036154;28;20060;-71
2023/07/11 12:27:56;;;;;;;9.43;2.08;;;31.90;52.60;;;;;;5036183;28;20056;-71
2023/07/11 12:30:29;;;;;;;10.30;2.05;;;32.20;52.50;;;;;;5035924;28;20079;-71
2023/07/11 12:33:14;;;;;;;9.50;2.13;;;32.20;51.40;;;;;;5035944;28;20047;-71
2023/07/11 12:35:41;;;;;;;5.15;2.15;;;32.30;52.10;;;;;;5035732;28;20426;-71
2023/07/11 12:38:22;;;;;;;11.77;2.38;;;32.30;51.60;;;;;;5035685;28;20049;-71
2023/07/11 12:41:10;;;;;;;9.43;2.63;;;32.30;51.10;;;;;;5035721;28;20120;-71
2023/07/11 12:43:39;;;;;;;5.25;1.77;;;32.10;51.20;;;;;;5036516;28;20047;-71
2023/07/11 12:46:26;;;;;;;8.07;2.28;;;31.90;51.60;;;;;;5073039;28;20440;-71
2023/07/11 12:48:52;;;;;;;7.68;2.00;;;31.80;51.80;;;;;;5073189;28;20040;-71
2023/07/11 12:51:33;;;;;;;5.82;1.92;;;31.90;52.90;;;;;;5072885;28;20040;-71
2023/07/11 12:54:08;;;;;;;5.80;2.22;;;31.90;51.60;;;;;;5073169;28;20056;-71
2023/07/11 12:56:34;;;;;;;3.90;1.80;;;31.80;51.90;;;;;;5072823;28;20072;-71
2023/07/11 12:58:59;;;;;;;7.30;1.75;;;31.70;52.00;;;;;;5072732;28;20129;-71
2023/07/11 13:01:25;;;;;;;6.03;1.90;;;31.70;52.00;;;;;;5072837;28;20052;-71